Time;durP1;ratioP1;P1;durP2;ratioP2;P2;SDS_P1;SDS_P2;PMS_P1;PMS_P2;Temp;Humidity;BMP_temperature;BMP_pressure;BME280_temperature;BME280_humidity;BME280_pressure;Samples;Min_cycle;Max_cycle;Signal;HPM_P1;HPM_P2
2022/05/06 00:01:32;;;;;;;;;;;;;;;;;;5077583;28;19913;-26
2022/05/06 00:03:58;;;;;;;;;;;;;;;;;;5076727;28;19912;-26
2022/05/06 00:06:24;;;;;;;;;;;;;;;;;;5076473;28;19909;-26
2022/05/06 00:08:50;;;;;;;;;;;;;;;;;;5076481;28;19955;-26
2022/05/06 00:11:16;;;;;;;;;;;;;;;;;;5076382;28;19916;-26
2022/05/06 00:13:42;;;;;;;;;;;;;;;;;;5076129;28;19929;-26
2022/05/06 00:16:08;;;;;;;;;;;;;;;;;;5075261;28;20331;-26
2022/05/06 00:21:19;;;;;;;;;;;;;;;;;;5078887;28;19919;-27
2022/05/06 00:23:46;;;;;;;;;;;;;;;;;;5078519;28;20374;-25
2022/05/06 00:26:13;;;;;;;;;;;;;;;;;;5078688;28;19931;-25
2022/05/06 00:28:45;;;;;;;;;;;;;;;;;;5078103;28;19912;-25
2022/05/06 00:31:12;;;;;;;;;;;;;;;;;;5078493;28;19913;-25
2022/05/06 00:33:38;;;;;;;;;;;;;;;;;;5078727;28;19916;-25
2022/05/06 00:38:57;;;;;;;;;;;;;;;;;;5078129;28;19982;-25
2022/05/06 00:41:24;;;;;;;;;;;;;;;;;;5077697;28;19951;-25
2022/05/06 00:43:51;;;;;;;;;;;;;;;;;;5077761;28;19912;-25
2022/05/06 00:46:18;;;;;;;;;;;;;;;;;;5077408;28;20428;-25
2022/05/06 00:48:45;;;;;;;;;;;;;;;;;;5077249;28;19916;-25
2022/05/06 00:51:11;;;;;;;;;;;;;;;;;;5078666;28;19915;-25
2022/05/06 00:53:38;;;;;;;;;;;;;;;;;;5077575;28;20351;-25
2022/05/06 00:58:56;;;;;;;;;;;;;;;;;;5079464;28;19923;-25
2022/05/06 01:04:08;;;;;;;;;;;;;;;;;;5078578;28;19919;-25
2022/05/06 01:06:35;;;;;;;;;;;;;;;;;;5077519;28;19916;-25
2022/05/06 01:09:01;;;;;;;;;;;;;;;;;;5075716;28;19912;-28
2022/05/06 01:11:27;;;;;;;;;;;;;;;;;;5075297;28;19991;-26
2022/05/06 01:13:55;;;;;;;;;;;;;;;;;;5075082;28;19917;-27
2022/05/06 01:16:21;;;;;;;;;;;;;;;;;;5075111;28;20339;-27
2022/05/06 01:18:48;;;;;;;;;;;;;;;;;;5075167;28;19915;-26
2022/05/06 01:21:14;;;;;;;;;;;;;;;;;;5075092;28;19912;-26
2022/05/06 01:23:40;;;;;;;;;;;;;;;;;;5074878;28;19956;-26
2022/05/06 01:26:06;;;;;;;;;;;;;;;;;;5074993;28;19913;-27
2022/05/06 01:28:32;;;;;;;;;;;;;;;;;;5075283;28;19919;-26
2022/05/06 01:31:01;;;;;;;;;;;;;;;;;;5075025;28;19908;-26
2022/05/06 01:33:27;;;;;;;;;;;;;;;;;;5074737;28;19916;-26
2022/05/06 01:35:53;;;;;;;;;;;;;;;;;;5074930;28;19915;-27
2022/05/06 01:38:19;;;;;;;;;;;;;;;;;;5074908;28;19924;-27
2022/05/06 01:40:46;;;;;;;;;;;;;;;;;;5073998;28;20251;-27
2022/05/06 01:43:12;;;;;;;;;;;;;;;;;;5073813;28;19912;-26
2022/05/06 01:45:38;;;;;;;;;;;;;;;;;;5074706;28;19924;-26
2022/05/06 01:48:04;;;;;;;;;;;;;;;;;;5075049;28;19919;-26
2022/05/06 01:50:30;;;;;;;;;;;;;;;;;;5074964;28;19924;-27
2022/05/06 01:52:56;;;;;;;;;;;;;;;;;;5074380;28;19923;-26
2022/05/06 01:55:23;;;;;;;;;;;;;;;;;;5074673;28;20012;-26
2022/05/06 01:57:49;;;;;;;;;;;;;;;;;;5074672;28;19939;-27
2022/05/06 02:00:15;;;;;;;;;;;;;;;;;;5074903;28;19912;-26
2022/05/06 02:02:41;;;;;;;;;;;;;;;;;;5074985;28;19917;-27
2022/05/06 02:05:17;;;;;;;;;;;;;;;;;;5074579;28;19908;-27
2022/05/06 02:07:43;;;;;;;;;;;;;;;;;;5074903;28;19958;-27
2022/05/06 02:10:09;;;;;;;;;;;;;;;;;;5074489;28;19912;-27
2022/05/06 02:12:35;;;;;;;;;;;;;;;;;;5074496;28;19912;-27
2022/05/06 02:15:01;;;;;;;;;;;;;;;;;;5074475;28;19917;-27
2022/05/06 02:17:27;;;;;;;;;;;;;;;;;;5074780;28;20240;-27
2022/05/06 02:19:53;;;;;;;;;;;;;;;;;;5074446;28;19909;-26
2022/05/06 02:22:19;;;;;;;;;;;;;;;;;;5074349;28;19920;-27
2022/05/06 02:24:45;;;;;;;;;;;;;;;;;;5074310;28;19921;-27
2022/05/06 02:27:12;;;;;;;;;;;;;;;;;;5074623;28;19924;-27
2022/05/06 02:29:38;;;;;;;;;;;;;;;;;;5074401;28;19940;-27
2022/05/06 02:34:48;;;;;;;;;;;;;;;;;;5074263;28;19927;-27
2022/05/06 02:37:14;;;;;;;;;;;;;;;;;;5074482;28;19908;-27
2022/05/06 02:39:40;;;;;;;;;;;;;;;;;;5074487;28;19936;-27
2022/05/06 02:42:06;;;;;;;;;;;;;;;;;;5074389;28;19908;-26
2022/05/06 02:44:32;;;;;;;;;;;;;;;;;;5074189;28;19919;-26
2022/05/06 02:46:58;;;;;;;;;;;;;;;;;;5074134;28;19913;-27
2022/05/06 02:49:24;;;;;;;;;;;;;;;;;;5074156;28;19909;-27
2022/05/06 02:51:50;;;;;;;;;;;;;;;;;;5075600;28;19944;-26
2022/05/06 02:54:21;;;;;;;;;;;;;;;;;;5078038;28;19986;-26
2022/05/06 02:56:47;;;;;;;;;;;;;;;;;;5077860;28;19918;-26
2022/05/06 02:59:13;;;;;;;;;;;;;;;;;;5078085;28;20395;-26
2022/05/06 03:01:39;;;;;;;;;;;;;;;;;;5077792;28;19919;-27
2022/05/06 03:04:05;;;;;;;;;;;;;;;;;;5077619;28;19912;-27
2022/05/06 03:06:31;;;;;;;;;;;;;;;;;;5077879;28;19912;-26
2022/05/06 03:08:57;;;;;;;;;;;;;;;;;;5077620;28;20227;-27
2022/05/06 03:11:23;;;;;;;;;;;;;;;;;;5077556;28;19916;-26
2022/05/06 03:13:49;;;;;;;;;;;;;;;;;;5077644;28;19931;-27
2022/05/06 03:16:15;;;;;;;;;;;;;;;;;;5077444;28;20351;-26
2022/05/06 03:18:41;;;;;;;;;;;;;;;;;;5077361;28;19912;-27
2022/05/06 03:21:07;;;;;;;;;;;;;;;;;;5077314;28;19913;-27
2022/05/06 03:23:33;;;;;;;;;;;;;;;;;;5077023;28;19928;-27
2022/05/06 03:25:59;;;;;;;;;;;;;;;;;;5077215;28;19916;-26
2022/05/06 03:28:25;;;;;;;;;;;;;;;;;;5077216;28;19916;-27
2022/05/06 03:30:52;;;;;;;;;;;;;;;;;;5076276;28;19974;-26
2022/05/06 03:33:18;;;;;;;;;;;;;;;;;;5077041;28;19924;-26
2022/05/06 03:35:44;;;;;;;;;;;;;;;;;;5076617;28;19909;-26
2022/05/06 03:38:10;;;;;;;;;;;;;;;;;;5077307;28;19971;-26
2022/05/06 03:40:36;;;;;;;;;;;;;;;;;;5077021;28;19909;-26
2022/05/06 03:43:02;;;;;;;;;;;;;;;;;;5076818;28;20054;-26
2022/05/06 03:45:28;;;;;;;;;;;;;;;;;;5076822;28;19935;-27
2022/05/06 03:47:55;;;;;;;;;;;;;;;;;;5076965;28;19913;-27
2022/05/06 03:53:06;;;;;;;;;;;;;;;;;;5076511;28;19966;-27
2022/05/06 03:55:32;;;;;;;;;;;;;;;;;;5076408;28;19999;-26
2022/05/06 03:57:58;;;;;;;;;;;;;;;;;;5076460;28;19930;-26
2022/05/06 04:00:26;;;;;;;;;;;;;;;;;;5076551;28;20294;-26
2022/05/06 04:02:52;;;;;;;;;;;;;;;;;;5075581;28;19919;-26
2022/05/06 04:05:18;;;;;;;;;;;;;;;;;;5076637;28;19915;-27
2022/05/06 04:07:48;;;;;;;;;;;;;;;;;;5078813;28;20350;-25
2022/05/06 04:16:01;;;;;;;;;;;;;;;;;;5077564;28;20304;-25
2022/05/06 04:18:41;;;;;;;;;;;;;;;;;;5077182;28;19913;-25
2022/05/06 04:38:08;;;;;;;;;;;;;;;;;;5433579;22;20281;-24
2022/05/06 04:40:36;;;;;;;;;;;;;;;;;;5077544;28;19916;-25
2022/05/06 04:43:03;;;;;;;;;;;;;;;;;;5077128;28;20291;-25
2022/05/06 04:45:30;;;;;;;;;;;;;;;;;;5076916;28;19913;-25
2022/05/06 04:47:58;;;;;;;;;;;;;;;;;;5078157;28;19904;-25
2022/05/06 04:50:27;;;;;;;;;;;;;;;;;;5077080;28;19927;-25
2022/05/06 04:58:36;;;;;;;;;;;;;;;;;;5078159;28;19927;-25
2022/05/06 05:01:04;;;;;;;;;;;;;;;;;;5075944;28;20246;-25
2022/05/06 05:06:25;;;;;;;;;;;;;;;;;;5077645;28;20370;-25
2022/05/06 05:14:41;;;;;;;;;;;;;;;;;;5080749;28;19986;-25
2022/05/06 05:17:13;;;;;;;;;;;;;;;;;;5081358;28;19912;-25
2022/05/06 05:25:25;;;;;;;;;;;;;;;;;;5077846;28;19966;-29
2022/05/06 05:28:01;;;;;;;;;;;;;;;;;;5077155;28;20369;-24
2022/05/06 05:41:50;;;;;;;;;;;;;;;;;;5075344;28;19920;-24
2022/05/06 05:49:59;;;;;;;;;;;;;;;;;;5077335;28;19915;-25
2022/05/06 06:03:44;;;;;;;;;;;;;;;;;;5279862;22;19935;-24
2022/05/06 06:06:13;;;;;;;;;;;;;;;;;;5073262;28;20255;-26
2022/05/06 06:08:41;;;;;;;;;;;;;;;;;;5074125;28;19912;-24
2022/05/06 06:11:09;;;;;;;;;;;;;;;;;;5073792;28;20258;-24
2022/05/06 06:13:37;;;;;;;;;;;;;;;;;;5073343;28;19916;-25
2022/05/06 06:16:05;;;;;;;;;;;;;;;;;;5073205;28;19916;-24
2022/05/06 06:18:33;;;;;;;;;;;;;;;;;;5072188;28;19962;-24
2022/05/06 06:21:00;;;;;;;;;;;;;;;;;;5073360;28;19967;-24
2022/05/06 06:23:27;;;;;;;;;;;;;;;;;;5073148;28;19947;-25
2022/05/06 06:26:00;;;;;;;;;;;;;;;;;;5073417;28;20396;-25
2022/05/06 06:28:29;;;;;;;;;;;;;;;;;;5076064;28;19913;-25
2022/05/06 06:30:58;;;;;;;;;;;;;;;;;;5077135;28;19936;-24
2022/05/06 06:33:32;;;;;;;;;;;;;;;;;;5075896;28;19916;-24
2022/05/06 06:36:00;;;;;;;;;;;;;;;;;;5077190;28;19912;-25
2022/05/06 06:38:27;;;;;;;;;;;;;;;;;;5077303;28;19923;-25
2022/05/06 06:40:55;;;;;;;;;;;;;;;;;;5077701;28;19920;-24
2022/05/06 06:43:28;;;;;;;;;;;;;;;;;;5077739;28;19923;-24
2022/05/06 06:46:01;;;;;;;;;;;;;;;;;;5077750;28;19916;-25
2022/05/06 06:48:29;;;;;;;;;;;;;;;;;;5079402;28;20388;-24
2022/05/06 06:50:58;;;;;;;;;;;;;;;;;;5079803;28;19908;-24
2022/05/06 06:53:26;;;;;;;;;;;;;;;;;;5079726;28;19920;-24
2022/05/06 06:55:55;;;;;;;;;;;;;;;;;;5079186;28;19915;-24
2022/05/06 06:58:23;;;;;;;;;;;;;;;;;;5079089;28;20259;-24
2022/05/06 07:00:49;;;;;;;;;;;;;;;;;;5079614;28;19923;-24
2022/05/06 07:03:16;;;;;;;;;;;;;;;;;;5078982;28;19964;-24
2022/05/06 07:14:00;;;;;;;;;;;;;;;;;;5079845;28;19927;-24
2022/05/06 07:16:28;;;;;;;;;;;;;;;;;;5078063;28;19928;-24
2022/05/06 07:18:55;;;;;;;;;;;;;;;;;;5078132;28;19940;-24
2022/05/06 07:21:22;;;;;;;;;;;;;;;;;;5079377;28;19909;-24
2022/05/06 07:23:55;;;;;;;;;;;;;;;;;;5078692;28;19920;-24
2022/05/06 07:26:23;;;;;;;;;;;;;;;;;;5077559;28;20242;-25
2022/05/06 07:28:50;;;;;;;;;;;;;;;;;;5079275;28;19995;-24
2022/05/06 07:31:19;;;;;;;;;;;;;;;;;;5077997;28;19986;-24
2022/05/06 07:33:47;;;;;;;;;;;;;;;;;;5077344;28;19977;-24
2022/05/06 07:36:13;;;;;;;;;;;;;;;;;;5076687;28;19908;-26
2022/05/06 07:38:40;;;;;;;;;;;;;;;;;;5075266;28;19920;-26
2022/05/06 07:41:06;;;;;;;;;;;;;;;;;;5076514;28;20007;-26
2022/05/06 07:43:32;;;;;;;;;;;;;;;;;;5076588;28;19939;-26
2022/05/06 07:45:59;;;;;;;;;;;;;;;;;;5076480;28;19913;-26
2022/05/06 07:48:25;;;;;;;;;;;;;;;;;;5076676;28;19916;-26
2022/05/06 07:50:51;;;;;;;;;;;;;;;;;;5076476;28;19966;-26
2022/05/06 07:53:17;;;;;;;;;;;;;;;;;;5074984;28;19955;-27
2022/05/06 07:55:43;;;;;;;;;;;;;;;;;;5076777;28;19912;-27
2022/05/06 07:58:14;;;;;;;;;;;;;;;;;;5076163;28;19915;-27
2022/05/06 08:00:40;;;;;;;;;;;;;;;;;;5075461;28;19954;-26
2022/05/06 08:05:57;;;;;;;;;;;;;;;;;;5078225;28;19926;-23
2022/05/06 08:08:33;;;;;;;;;;;;;;;;;;5075606;28;19943;-25
2022/05/06 08:11:01;;;;;;;;;;;;;;;;;;5078494;28;19909;-24
2022/05/06 08:13:29;;;;;;;;;;;;;;;;;;5077810;28;19916;-23
2022/05/06 08:15:57;;;;;;;;;;;;;;;;;;5078806;28;19943;-25
2022/05/06 08:18:30;;;;;;;;;;;;;;;;;;5077435;28;19916;-25
2022/05/06 08:20:59;;;;;;;;;;;;;;;;;;5077415;28;19970;-24
2022/05/06 08:23:27;;;;;;;;;;;;;;;;;;5077154;28;19924;-24
2022/05/06 08:25:56;;;;;;;;;;;;;;;;;;5077513;28;19938;-24
2022/05/06 08:28:23;;;;;;;;;;;;;;;;;;5076793;28;19963;-25
2022/05/06 08:30:52;;;;;;;;;;;;;;;;;;5078356;28;19916;-25
2022/05/06 08:33:37;;;;;;;;;;;;;;;;;;5077981;28;19916;-25
2022/05/06 08:36:05;;;;;;;;;;;;;;;;;;5078771;28;20007;-24
2022/05/06 08:38:33;;;;;;;;;;;;;;;;;;5076609;28;19936;-26
2022/05/06 08:41:00;;;;;;;;;;;;;;;;;;5076401;28;20442;-26
2022/05/06 08:51:53;;;;;;;;;;;;;;;;;;5076326;28;19945;-28
2022/05/06 08:54:20;;;;;;;;;;;;;;;;;;5074258;28;19923;-26
2022/05/06 08:56:47;;;;;;;;;;;;;;;;;;5074598;28;19912;-26
2022/05/06 08:59:20;;;;;;;;;;;;;;;;;;5074311;28;20239;-26
2022/05/06 09:01:56;;;;;;;;;;;;;;;;;;5074332;28;19912;-26
2022/05/06 09:04:22;;;;;;;;;;;;;;;;;;5073481;28;19930;-26
2022/05/06 09:06:49;;;;;;;;;;;;;;;;;;5074030;28;19912;-26
2022/05/06 09:09:15;;;;;;;;;;;;;;;;;;5072977;28;20111;-26
2022/05/06 09:17:12;;;;;;;;;;;;;;;;;;5074029;28;20002;-26
2022/05/06 09:22:40;;;;;;;;;;;;;;;;;;5074304;28;20015;-29
2022/05/06 09:30:52;;;;;;;;;;;;;;;;;;5078429;28;19935;-25
2022/05/06 09:44:37;;;;;;;;;;;;;;;;;;5076253;28;19925;-24
2022/05/06 09:47:04;;;;;;;;;;;;;;;;;;5076485;28;19912;-25
2022/05/06 09:49:36;;;;;;;;;;;;;;;;;;5076157;28;19913;-25
2022/05/06 09:52:05;;;;;;;;;;;;;;;;;;5077276;28;19912;-25
2022/05/06 09:54:32;;;;;;;;;;;;;;;;;;5075872;28;19991;-26
2022/05/06 09:57:03;;;;;;;;;;;;;;;;;;5077168;28;19908;-24
2022/05/06 09:59:31;;;;;;;;;;;;;;;;;;5076928;28;20365;-24
2022/05/06 10:02:06;;;;;;;;;;;;;;;;;;5075853;28;19908;-24
2022/05/06 10:04:35;;;;;;;;;;;;;;;;;;5076573;28;19912;-23
2022/05/06 10:07:07;;;;;;;;;;;;;;;;;;5076323;28;19966;-24
2022/05/06 10:09:36;;;;;;;;;;;;;;;;;;5076443;28;19954;-24
2022/05/06 10:12:07;;;;;;;;;;;;;;;;;;5074914;28;19908;-25
2022/05/06 10:14:37;;;;;;;;;;;;;;;;;;5076521;28;20200;-26
2022/05/06 10:17:06;;;;;;;;;;;;;;;;;;5077413;28;19927;-25
2022/05/06 10:19:34;;;;;;;;;;;;;;;;;;5075939;28;20023;-25
2022/05/06 10:22:06;;;;;;;;;;;;;;;;;;5076638;28;19908;-25
2022/05/06 10:24:35;;;;;;;;;;;;;;;;;;5077124;28;20003;-25
2022/05/06 10:38:30;;;;;;;;;;;;;;;;;;5423461;22;19924;-24
2022/05/06 10:41:01;;;;;;;;;;;;;;;;;;5064660;28;19987;-24
2022/05/06 10:43:39;;;;;;;;;;;;;;;;;;5054165;28;19904;-26
2022/05/06 10:49:01;;;;;;;;;;;;;;;;;;5053034;28;19991;-24
2022/05/06 10:51:29;;;;;;;;;;;;;;;;;;5053778;28;19917;-24
2022/05/06 10:53:58;;;;;;;;;;;;;;;;;;5053526;28;20309;-24
2022/05/06 10:56:28;;;;;;;;;;;;;;;;;;5055459;28;19987;-24
2022/05/06 10:58:57;;;;;;;;;;;;;;;;;;5054063;28;19960;-24
2022/05/06 11:01:26;;;;;;;;;;;;;;;;;;5055831;28;19912;-24
2022/05/06 11:03:54;;;;;;;;;;;;;;;;;;5055272;28;20291;-24
2022/05/06 11:06:21;;;;;;;;;;;;;;;;;;5056498;28;19913;-24
2022/05/06 11:08:50;;;;;;;;;;;;;;;;;;5055033;28;19909;-24
2022/05/06 11:11:19;;;;;;;;;;;;;;;;;;5054667;28;19913;-24
2022/05/06 11:13:53;;;;;;;;;;;;;;;;;;5056875;28;20011;-24
2022/05/06 11:16:20;;;;;;;;;;;;;;;;;;5058388;28;19943;-24
2022/05/06 11:18:48;;;;;;;;;;;;;;;;;;5058380;28;19909;-25
2022/05/06 11:21:16;;;;;;;;;;;;;;;;;;5058271;28;20012;-24
2022/05/06 11:23:43;;;;;;;;;;;;;;;;;;5041854;28;19920;-24
2022/05/06 11:48:35;;;;;;;;;;;;;;;;;;5100084;28;19923;-24
2022/05/06 11:51:05;;;;;;;;;;;;;;;;;;5100376;28;19912;-24
2022/05/06 11:53:40;;;;;;;;;;;;;;;;;;5099932;28;19919;-24
2022/05/06 11:56:25;;;;;;;;;;;;;;;;;;5096760;28;19919;-25
2022/05/06 11:58:53;;;;;;;;;;;;;;;;;;5099842;28;19919;-25
2022/05/06 12:01:21;;;;;;;;;;;;;;;;;;5099465;28;19995;-25
2022/05/06 12:03:49;;;;;;;;;;;;;;;;;;5098993;28;20354;-24
2022/05/06 12:06:19;;;;;;;;;;;;;;;;;;5099948;28;19908;-25
2022/05/06 12:08:46;;;;;;;;;;;;;;;;;;5080952;28;19938;-24
2022/05/06 12:11:15;;;;;;;;;;;;;;;;;;5081028;28;19933;-24
2022/05/06 12:13:42;;;;;;;;;;;;;;;;;;5098162;28;19916;-24
2022/05/06 12:16:14;;;;;;;;;;;;;;;;;;5080824;28;20250;-24
2022/05/06 12:18:45;;;;;;;;;;;;;;;;;;5099266;28;19912;-25
2022/05/06 12:21:12;;;;;;;;;;;;;;;;;;5098980;28;19912;-24
2022/05/06 12:23:41;;;;;;;;;;;;;;;;;;5080537;28;20274;-24
2022/05/06 12:26:08;;;;;;;;;;;;;;;;;;5097981;28;20230;-25
2022/05/06 12:28:43;;;;;;;;;;;;;;;;;;5098497;28;19963;-24
2022/05/06 12:31:11;;;;;;;;;;;;;;;;;;5099631;28;19923;-25
2022/05/06 12:33:45;;;;;;;;;;;;;;;;;;5098559;28;19916;-25
2022/05/06 12:36:16;;;;;;;;;;;;;;;;;;5080478;28;19926;-25
2022/05/06 12:38:44;;;;;;;;;;;;;;;;;;5080601;28;20258;-26
2022/05/06 12:41:13;;;;;;;;;;;;;;;;;;5096332;28;19920;-24
2022/05/06 12:43:41;;;;;;;;;;;;;;;;;;5099037;28;19912;-25
2022/05/06 12:46:08;;;;;;;;;;;;;;;;;;5098217;28;19913;-24
2022/05/06 12:51:21;;;;;;;;;;;;;;;;;;5098599;28;19965;-24
2022/05/06 12:53:48;;;;;;;;;;;;;;;;;;5098018;28;19938;-24
2022/05/06 12:56:19;;;;;;;;;;;;;;;;;;5098286;28;19915;-24
2022/05/06 12:58:47;;;;;;;;;;;;;;;;;;5097286;28;19919;-24
2022/05/06 13:01:17;;;;;;;;;;;;;;;;;;5079433;28;20010;-25
2022/05/06 13:03:45;;;;;;;;;;;;;;;;;;5097878;28;19912;-24
2022/05/06 13:06:12;;;;;;;;;;;;;;;;;;5097820;28;19912;-23
2022/05/06 13:08:40;;;;;;;;;;;;;;;;;;5098253;28;19926;-24
2022/05/06 13:11:08;;;;;;;;;;;;;;;;;;5078608;28;19908;-24
2022/05/06 13:13:36;;;;;;;;;;;;;;;;;;5097961;28;19916;-24
2022/05/06 13:16:03;;;;;;;;;;;;;;;;;;5079677;28;19908;-25
2022/05/06 13:18:31;;;;;;;;;;;;;;;;;;5080241;28;19923;-24
2022/05/06 13:20:59;;;;;;;;;;;;;;;;;;5078778;28;19970;-24
2022/05/06 13:26:17;;;;;;;;;;;;;;;;;;5094901;28;19923;-25
2022/05/06 13:28:44;;;;;;;;;;;;;;;;;;5094841;28;19912;-25
2022/05/06 13:31:11;;;;;;;;;;;;;;;;;;5094713;28;19912;-25
2022/05/06 13:33:39;;;;;;;;;;;;;;;;;;5096805;28;19912;-24
2022/05/06 13:36:06;;;;;;;;;;;;;;;;;;5097140;28;19961;-24
2022/05/06 13:38:34;;;;;;;;;;;;;;;;;;5078784;28;19912;-25
2022/05/06 13:41:02;;;;;;;;;;;;;;;;;;5095951;28;20311;-24
2022/05/06 13:43:29;;;;;;;;;;;;;;;;;;5078951;28;19933;-24
2022/05/06 13:45:58;;;;;;;;;;;;;;;;;;5079499;28;19947;-24
2022/05/06 13:48:25;;;;;;;;;;;;;;;;;;5095965;28;20330;-25
2022/05/06 13:50:51;;;;;;;;;;;;;;;;;;5094868;28;20361;-25
2022/05/06 13:53:17;;;;;;;;;;;;;;;;;;5094385;28;19908;-25
2022/05/06 14:01:15;;;;;;;;;;;;;;;;;;5097370;28;19923;-24
2022/05/06 14:03:42;;;;;;;;;;;;;;;;;;5096851;28;19942;-24
2022/05/06 14:06:08;;;;;;;;;;;;;;;;;;5095766;28;19958;-25
2022/05/06 14:08:34;;;;;;;;;;;;;;;;;;5076606;28;19908;-25
2022/05/06 14:11:03;;;;;;;;;;;;;;;;;;5095858;28;20063;-24
2022/05/06 14:13:29;;;;;;;;;;;;;;;;;;5078552;28;19930;-24
2022/05/06 14:15:56;;;;;;;;;;;;;;;;;;5079509;28;19908;-24
2022/05/06 14:18:25;;;;;;;;;;;;;;;;;;5097333;28;19939;-25
2022/05/06 14:40:41;;;;;;;;;;;;;;;;;;5057717;28;20247;-25
2022/05/06 14:51:30;;;;;;;;;;;;;;;;;;5082218;28;19931;-24
2022/05/06 14:56:58;;;;;;;;;;;;;;;;;;5080923;28;19924;-24
2022/05/06 15:08:13;;;;;;;;;;;;;;;;;;;;;
2022/05/06 15:10:54;;;;;;;;;;;;;;;;;;5079766;28;19966;-24
2022/05/06 15:16:35;;;;;;;;;;;;;;;;;;5076667;28;19985;-24
2022/05/06 15:27:38;;;;;;;;;;;;;;;;;;5077232;28;19936;-24
2022/05/06 15:32:59;;;;;;;;;;;;;;;;;;5503538;22;19939;-25
2022/05/06 15:35:28;;;;;;;;;;;;;;;;;;5099354;28;20319;-25
2022/05/06 15:37:55;;;;;;;;;;;;;;;;;;5081120;28;20253;-25
2022/05/06 15:40:23;;;;;;;;;;;;;;;;;;5099202;28;19960;-25
2022/05/06 15:42:50;;;;;;;;;;;;;;;;;;5081033;28;19915;-25
2022/05/06 15:45:17;;;;;;;;;;;;;;;;;;5098838;28;19912;-24
2022/05/06 15:47:45;;;;;;;;;;;;;;;;;;5080725;28;20037;-25
2022/05/06 15:50:12;;;;;;;;;;;;;;;;;;5080834;28;19951;-24
2022/05/06 15:55:23;;;;;;;;;;;;;;;;;;5099010;28;20333;-26
2022/05/06 15:57:50;;;;;;;;;;;;;;;;;;5100034;28;20003;-25
2022/05/06 16:00:18;;;;;;;;;;;;;;;;;;5099431;28;20334;-25
2022/05/06 16:02:46;;;;;;;;;;;;;;;;;;5099503;28;19950;-25
2022/05/06 16:05:19;;;;;;;;;;;;;;;;;;5101597;28;19912;-26
2022/05/06 16:07:49;;;;;;;;;;;;;;;;;;5102979;28;19938;-24
2022/05/06 16:10:17;;;;;;;;;;;;;;;;;;5102342;28;19908;-25
2022/05/06 16:12:47;;;;;;;;;;;;;;;;;;5101103;28;20011;-24
2022/05/06 16:15:26;;;;;;;;;;;;;;;;;;5098474;28;19951;-25
2022/05/06 16:18:12;;;;;;;;;;;;;;;;;;5097943;28;19908;-24
2022/05/06 16:26:23;;;;;;;;;;;;;;;;;;5103518;28;19923;-24
2022/05/06 16:28:50;;;;;;;;;;;;;;;;;;5099971;28;19922;-24
2022/05/06 16:31:18;;;;;;;;;;;;;;;;;;5098913;28;20310;-24
2022/05/06 16:45:03;;;;;;;;;;;;;;;;;;5079314;28;19923;-24
2022/05/06 16:47:31;;;;;;;;;;;;;;;;;;5077826;28;19920;-25
2022/05/06 16:49:58;;;;;;;;;;;;;;;;;;5077702;28;19919;-24
2022/05/06 16:52:26;;;;;;;;;;;;;;;;;;5077212;28;19975;-24
2022/05/06 16:54:54;;;;;;;;;;;;;;;;;;5077282;28;19916;-24
2022/05/06 16:57:21;;;;;;;;;;;;;;;;;;5076700;28;19919;-24
2022/05/06 16:59:48;;;;;;;;;;;;;;;;;;5077727;28;19961;-24
2022/05/06 17:02:16;;;;;;;;;;;;;;;;;;5076505;28;19913;-24
2022/05/06 17:04:43;;;;;;;;;;;;;;;;;;5078238;28;19923;-24
2022/05/06 17:07:10;;;;;;;;;;;;;;;;;;5077242;28;19913;-24
2022/05/06 17:09:37;;;;;;;;;;;;;;;;;;5077867;28;19912;-24
2022/05/06 17:12:05;;;;;;;;;;;;;;;;;;5076215;28;19908;-24
2022/05/06 17:14:33;;;;;;;;;;;;;;;;;;5077333;28;20305;-24
2022/05/06 17:17:00;;;;;;;;;;;;;;;;;;5077916;28;19920;-24
2022/05/06 17:19:31;;;;;;;;;;;;;;;;;;5077354;28;20306;-25
2022/05/06 17:21:57;;;;;;;;;;;;;;;;;;5076458;28;19912;-25
2022/05/06 17:24:26;;;;;;;;;;;;;;;;;;5077188;28;20007;-25
2022/05/06 17:26:53;;;;;;;;;;;;;;;;;;5077635;28;19934;-25
2022/05/06 17:29:21;;;;;;;;;;;;;;;;;;5077199;28;19999;-25
2022/05/06 17:40:20;;;;;;;;;;;;;;;;;;5101162;28;19950;-25
2022/05/06 17:42:50;;;;;;;;;;;;;;;;;;5080539;28;20402;-25
2022/05/06 17:45:17;;;;;;;;;;;;;;;;;;5078380;28;19915;-25
2022/05/06 17:47:44;;;;;;;;;;;;;;;;;;5096131;28;19919;-25
2022/05/06 17:50:11;;;;;;;;;;;;;;;;;;5095999;28;19908;-25
2022/05/06 17:52:38;;;;;;;;;;;;;;;;;;5096103;28;19923;-32
2022/05/06 17:55:05;;;;;;;;;;;;;;;;;;5096277;28;19965;-25
2022/05/06 17:57:32;;;;;;;;;;;;;;;;;;5096778;28;19980;-25
2022/05/06 18:02:51;;;;;;;;;;;;;;;;;;5096792;28;19923;-25
2022/05/06 18:05:20;;;;;;;;;;;;;;;;;;5078409;28;19942;-25
2022/05/06 18:07:47;;;;;;;;;;;;;;;;;;5078166;28;19912;-25
2022/05/06 18:10:14;;;;;;;;;;;;;;;;;;5077615;28;19964;-25
2022/05/06 18:12:41;;;;;;;;;;;;;;;;;;5095828;28;20298;-25
2022/05/06 18:15:08;;;;;;;;;;;;;;;;;;5078230;28;19919;-25
2022/05/06 18:17:35;;;;;;;;;;;;;;;;;;5095808;28;20288;-25
2022/05/06 18:20:02;;;;;;;;;;;;;;;;;;5096175;28;19938;-25
2022/05/06 18:22:29;;;;;;;;;;;;;;;;;;5097829;28;20245;-25
2022/05/06 18:24:59;;;;;;;;;;;;;;;;;;5081878;28;19928;-25
2022/05/06 18:27:31;;;;;;;;;;;;;;;;;;5082875;28;19989;-25
2022/05/06 18:30:10;;;;;;;;;;;;;;;;;;5084881;28;19912;-25
2022/05/06 18:44:27;;;;;;;;;;;;;;;;;;5061915;28;20662;-26
2022/05/06 18:47:04;;;;;;;;;;;;;;;;;;5065009;28;20399;-26
2022/05/06 18:55:16;;;;;;;;;;;;;;;;;;5063094;28;19990;-26
2022/05/06 18:57:45;;;;;;;;;;;;;;;;;;5062541;28;19923;-25
2022/05/06 19:00:12;;;;;;;;;;;;;;;;;;5061271;28;19923;-25
2022/05/06 19:02:39;;;;;;;;;;;;;;;;;;5058944;28;19913;-26
2022/05/06 19:05:06;;;;;;;;;;;;;;;;;;5059665;28;19912;-25
2022/05/06 19:07:33;;;;;;;;;;;;;;;;;;5058688;28;19987;-26
2022/05/06 19:09:59;;;;;;;;;;;;;;;;;;5060453;28;19917;-25
2022/05/06 19:12:27;;;;;;;;;;;;;;;;;;5059687;28;19936;-25
2022/05/06 19:14:54;;;;;;;;;;;;;;;;;;5059357;28;20255;-25
2022/05/06 19:17:20;;;;;;;;;;;;;;;;;;5059508;28;19920;-25
2022/05/06 19:19:48;;;;;;;;;;;;;;;;;;5059507;28;19920;-25
2022/05/06 19:25:00;;;;;;;;;;;;;;;;;;5059461;28;20019;-24
2022/05/06 19:27:28;;;;;;;;;;;;;;;;;;5059230;28;19913;-24
2022/05/06 19:29:55;;;;;;;;;;;;;;;;;;5059542;28;19919;-24
2022/05/06 19:32:22;;;;;;;;;;;;;;;;;;5058156;28;20027;-24
2022/05/06 19:40:24;;;;;;;;;;;;;;;;;;5097505;28;19919;-25
2022/05/06 19:42:52;;;;;;;;;;;;;;;;;;5084265;28;19916;-25
2022/05/06 19:45:18;;;;;;;;;;;;;;;;;;5096656;28;19916;-25
2022/05/06 19:47:44;;;;;;;;;;;;;;;;;;5097171;28;19935;-25
2022/05/06 19:50:10;;;;;;;;;;;;;;;;;;5078742;28;20010;-26
2022/05/06 19:55:20;;;;;;;;;;;;;;;;;;5096349;28;19950;-25
2022/05/06 19:57:47;;;;;;;;;;;;;;;;;;5095843;28;19916;-25
2022/05/06 20:00:13;;;;;;;;;;;;;;;;;;5095786;28;19908;-25
2022/05/06 20:02:39;;;;;;;;;;;;;;;;;;5077667;28;20007;-25
2022/05/06 20:05:05;;;;;;;;;;;;;;;;;;5095880;28;19913;-26
2022/05/06 20:07:32;;;;;;;;;;;;;;;;;;5095630;28;20300;-25
2022/05/06 20:09:58;;;;;;;;;;;;;;;;;;5095810;28;19919;-26
2022/05/06 20:12:24;;;;;;;;;;;;;;;;;;5095540;28;19916;-26
2022/05/06 20:14:50;;;;;;;;;;;;;;;;;;5095457;28;19924;-26
2022/05/06 20:17:17;;;;;;;;;;;;;;;;;;5077564;28;19908;-26
2022/05/06 20:19:43;;;;;;;;;;;;;;;;;;5095354;28;19972;-25
2022/05/06 20:22:09;;;;;;;;;;;;;;;;;;5095623;28;19908;-26
2022/05/06 20:24:35;;;;;;;;;;;;;;;;;;5095518;28;19916;-26
2022/05/06 20:27:02;;;;;;;;;;;;;;;;;;5095784;28;19912;-26
2022/05/06 20:29:28;;;;;;;;;;;;;;;;;;5095523;28;20304;-26
2022/05/06 20:31:54;;;;;;;;;;;;;;;;;;5077870;28;19908;-25
2022/05/06 20:34:20;;;;;;;;;;;;;;;;;;5095921;28;19946;-26
2022/05/06 20:36:46;;;;;;;;;;;;;;;;;;5077960;28;20300;-26
2022/05/06 20:39:12;;;;;;;;;;;;;;;;;;5095691;28;19920;-26
2022/05/06 20:41:38;;;;;;;;;;;;;;;;;;5095827;28;19980;-26
2022/05/06 20:44:04;;;;;;;;;;;;;;;;;;5095837;28;19935;-26
2022/05/06 20:46:30;;;;;;;;;;;;;;;;;;5095266;28;19923;-27
2022/05/06 20:48:56;;;;;;;;;;;;;;;;;;5096530;28;19908;-26
2022/05/06 20:51:22;;;;;;;;;;;;;;;;;;5095712;28;19912;-27
2022/05/06 20:53:48;;;;;;;;;;;;;;;;;;5095896;28;19916;-27
2022/05/06 20:56:14;;;;;;;;;;;;;;;;;;5095655;28;19912;-27
2022/05/06 21:01:26;;;;;;;;;;;;;;;;;;5095848;28;19919;-27
2022/05/06 21:03:52;;;;;;;;;;;;;;;;;;5096749;28;19916;-25
2022/05/06 21:06:19;;;;;;;;;;;;;;;;;;5098216;28;19912;-25
2022/05/06 21:14:16;;;;;;;;;;;;;;;;;;5095353;28;20364;-26
2022/05/06 21:16:42;;;;;;;;;;;;;;;;;;5095249;28;19986;-26
2022/05/06 21:19:09;;;;;;;;;;;;;;;;;;5094796;28;19939;-26
2022/05/06 21:21:35;;;;;;;;;;;;;;;;;;5095395;28;20289;-26
2022/05/06 21:24:01;;;;;;;;;;;;;;;;;;5095034;28;19990;-26
2022/05/06 21:26:27;;;;;;;;;;;;;;;;;;5095462;28;19912;-26
2022/05/06 21:28:54;;;;;;;;;;;;;;;;;;5096965;28;20396;-25
2022/05/06 21:31:21;;;;;;;;;;;;;;;;;;5079143;28;20230;-25
2022/05/06 21:33:48;;;;;;;;;;;;;;;;;;5097003;28;20326;-25
2022/05/06 21:36:15;;;;;;;;;;;;;;;;;;5097325;28;19966;-26
2022/05/06 21:38:42;;;;;;;;;;;;;;;;;;5079247;28;20276;-25
2022/05/06 21:41:08;;;;;;;;;;;;;;;;;;5095016;28;19913;-26
2022/05/06 21:43:34;;;;;;;;;;;;;;;;;;5094932;28;19941;-26
2022/05/06 21:46:00;;;;;;;;;;;;;;;;;;5095008;28;19938;-26
2022/05/06 21:48:27;;;;;;;;;;;;;;;;;;5094864;28;20301;-26
2022/05/06 21:50:53;;;;;;;;;;;;;;;;;;5095739;28;20341;-26
2022/05/06 21:53:20;;;;;;;;;;;;;;;;;;5095989;28;19999;-25